createdAt,value
2022-11-13T00:02:40.977Z,36.80
2022-11-13T00:08:03.825Z,35.50
2022-11-13T00:13:30.143Z,35.25
2022-11-13T00:18:51.896Z,35.05
2022-11-13T00:24:14.799Z,36.10
2022-11-13T00:29:36.312Z,35.13
2022-11-13T00:34:58.014Z,34.42
2022-11-13T00:40:21.071Z,35.17
2022-11-13T00:45:42.597Z,35.40
2022-11-13T00:51:04.798Z,35.17
2022-11-13T00:56:28.044Z,35.13
2022-11-13T01:01:49.702Z,35.63
2022-11-13T01:07:11.307Z,34.55
2022-11-13T01:12:34.233Z,37.17
2022-11-13T01:17:55.950Z,35.70
2022-11-13T01:23:17.462Z,37.03
2022-11-13T01:28:41.290Z,36.28
2022-11-13T01:34:03.118Z,35.85
2022-11-13T01:39:24.732Z,36.40
2022-11-13T01:44:53.414Z,35.83
2022-11-13T01:50:16.213Z,35.65
2022-11-13T01:55:37.737Z,35.17
2022-11-13T02:01:00.589Z,36.20
2022-11-13T02:06:22.838Z,36.63
2022-11-13T02:11:44.806Z,35.75
2022-11-13T02:17:12.078Z,35.83
2022-11-13T02:22:37.175Z,36.50
2022-11-13T02:28:00.320Z,35.53
2022-11-13T02:33:25.107Z,35.92
2022-11-13T02:38:47.650Z,34.63
2022-11-13T02:44:10.343Z,35.25
2022-11-13T02:49:31.606Z,34.33
2022-11-13T02:54:53.242Z,35.03
2022-11-13T03:00:16.896Z,35.35
2022-11-13T03:05:38.159Z,34.13
2022-11-13T03:10:59.885Z,34.47
2022-11-13T03:16:23.134Z,34.33
2022-11-13T03:21:44.530Z,35.00
2022-11-13T03:27:06.252Z,34.92
2022-11-13T03:32:29.468Z,34.67
2022-11-13T03:37:51.449Z,35.42
2022-11-13T03:43:12.778Z,36.10
2022-11-13T03:48:35.971Z,35.70
2022-11-13T03:53:57.770Z,35.13
2022-11-13T03:59:19.146Z,34.58
2022-11-13T04:04:42.026Z,34.83
2022-11-13T04:10:03.943Z,34.47
2022-11-13T04:15:25.344Z,34.83
2022-11-13T04:20:47.981Z,34.95
2022-11-13T04:26:09.538Z,35.25
2022-11-13T04:31:31.083Z,34.40
2022-11-13T04:36:54.071Z,35.38
2022-11-13T04:42:33.258Z,35.25
2022-11-13T04:47:55.028Z,34.22
2022-11-13T04:53:17.874Z,35.15
2022-11-13T04:58:39.497Z,34.88
2022-11-13T05:04:01.185Z,34.38
2022-11-13T05:09:24.165Z,34.50
2022-11-13T05:14:45.817Z,35.60
2022-11-13T05:20:08.626Z,34.33
2022-11-13T05:25:32.321Z,34.03
2022-11-13T05:30:53.572Z,33.92
2022-11-13T05:36:16.764Z,35.08
2022-11-13T05:41:39.676Z,35.65
2022-11-13T05:47:01.512Z,35.40
2022-11-13T05:52:23.511Z,34.92
2022-11-13T05:57:46.707Z,34.72
2022-11-13T06:03:08.376Z,36.15
2022-11-13T06:08:30.727Z,35.25
2022-11-13T06:13:55.800Z,34.88
2022-11-13T06:19:17.539Z,34.35
2022-11-13T06:24:39.491Z,34.22
2022-11-13T06:30:03.332Z,34.58
2022-11-13T06:35:25.077Z,34.90
2022-11-13T06:40:46.606Z,34.40
2022-11-13T06:46:13.065Z,33.78
2022-11-13T06:51:34.711Z,34.33
2022-11-13T06:56:56.566Z,33.88
2022-11-13T07:02:19.891Z,34.45
2022-11-13T07:07:41.482Z,34.50
2022-11-13T07:13:03.321Z,34.53
2022-11-13T07:18:26.692Z,35.15
2022-11-13T07:23:50.181Z,33.92
2022-11-13T07:29:12.960Z,35.50
2022-11-13T07:34:36.064Z,34.42
2022-11-13T07:39:59.737Z,35.45
2022-11-13T07:45:21.665Z,35.25
2022-11-13T07:50:44.789Z,34.60
2022-11-13T07:56:07.521Z,34.45
2022-11-13T08:01:29.173Z,45.03
2022-11-13T08:06:52.339Z,36.83
2022-11-13T08:12:14.254Z,37.00
2022-11-13T08:17:35.822Z,35.75
2022-11-13T08:23:00.326Z,37.38
2022-11-13T08:28:22.212Z,37.67
2022-11-13T08:33:44.783Z,38.33
2022-11-13T08:39:07.832Z,37.03
2022-11-13T08:44:29.561Z,35.67
2022-11-13T08:50:04.811Z,36.72
2022-11-13T08:55:28.562Z,35.90
2022-11-13T09:00:50.402Z,35.78
2022-11-13T09:06:12.190Z,36.47
2022-11-13T09:11:35.519Z,36.35
2022-11-13T09:16:57.012Z,36.33
2022-11-13T09:22:18.880Z,36.35
2022-11-13T09:27:42.068Z,37.28
2022-11-13T09:33:03.993Z,37.17
2022-11-13T09:38:25.786Z,37.15
2022-11-13T09:43:59.295Z,36.03
2022-11-13T09:49:28.167Z,37.35
2022-11-13T09:54:50.109Z,38.03
2022-11-13T10:00:17.256Z,36.72
2022-11-13T10:05:49.000Z,37.35
2022-11-13T10:11:15.664Z,36.85
2022-11-13T10:16:44.781Z,37.38
2022-11-13T10:22:32.130Z,37.28
2022-11-13T10:27:57.369Z,38.92
2022-11-13T10:33:22.902Z,36.75
2022-11-13T10:38:50.161Z,37.45
2022-11-13T10:44:24.384Z,36.42
2022-11-13T10:49:47.424Z,37.83
2022-11-13T10:55:18.514Z,37.00
2022-11-13T11:00:44.321Z,37.75
2022-11-13T11:06:07.683Z,37.22
2022-11-13T11:11:46.870Z,37.72
2022-11-13T11:17:10.485Z,37.70
2022-11-13T11:22:38.041Z,37.65
2022-11-13T11:28:05.944Z,38.00
2022-11-13T11:33:34.790Z,39.08
2022-11-13T11:39:03.524Z,39.33
2022-11-13T11:44:32.443Z,38.15
2022-11-13T11:49:54.394Z,39.47
2022-11-13T11:55:32.367Z,41.13
2022-11-13T12:01:01.694Z,39.28
2022-11-13T12:06:35.243Z,39.30
2022-11-13T12:12:11.076Z,39.63
2022-11-13T12:17:45.936Z,39.88
2022-11-13T12:23:19.471Z,39.72
2022-11-13T12:28:49.455Z,39.85
2022-11-13T12:34:17.860Z,39.63
2022-11-13T12:39:47.573Z,40.35
2022-11-13T12:45:18.140Z,40.00
2022-11-13T12:50:39.987Z,39.15
2022-11-13T12:56:04.155Z,38.80
2022-11-13T13:01:29.571Z,39.45
2022-11-13T13:07:06.528Z,38.28
2022-11-13T13:12:40.800Z,38.00
2022-11-13T13:18:12.007Z,38.75
2022-11-13T13:23:36.037Z,39.60
2022-11-13T13:29:02.869Z,39.90
2022-11-13T13:34:38.361Z,39.00
2022-11-13T13:40:12.322Z,38.97
2022-11-13T13:45:48.592Z,39.03
2022-11-13T13:51:23.188Z,38.63
2022-11-13T13:56:45.172Z,38.40
2022-11-13T14:02:17.908Z,37.95
2022-11-13T14:07:48.494Z,42.95
2022-11-13T14:26:59.789Z,39.25
2022-11-13T14:32:24.064Z,39.58
2022-11-13T14:37:47.132Z,40.13
2022-11-13T14:43:18.182Z,40.53
2022-11-13T14:48:39.594Z,40.78
2022-11-13T14:54:07.489Z,39.90
2022-11-13T14:59:45.644Z,40.70
2022-11-13T15:05:07.003Z,40.47
2022-11-13T15:10:29.969Z,40.17
2022-11-13T15:15:53.078Z,50.17
2022-11-13T15:21:14.906Z,41.78
2022-11-13T15:26:36.448Z,41.08
2022-11-13T15:31:59.437Z,41.00
2022-11-13T15:37:21.155Z,40.00
2022-11-13T15:42:44.009Z,42.20
2022-11-13T15:48:09.902Z,42.08
2022-11-13T15:53:31.421Z,41.88
2022-11-13T15:58:53.506Z,39.83
2022-11-13T16:04:16.542Z,40.90
2022-11-13T16:09:38.117Z,42.20
2022-11-13T16:15:07.635Z,39.42
2022-11-13T16:20:39.449Z,39.95
2022-11-13T16:26:04.463Z,41.83
2022-11-13T16:31:26.216Z,42.45
2022-11-13T16:36:51.642Z,40.80
2022-11-13T16:42:14.300Z,40.83
2022-11-13T16:47:36.484Z,39.90
2022-11-13T16:52:59.172Z,39.75
2022-11-13T16:58:20.648Z,39.55
2022-11-13T17:03:42.150Z,38.83
2022-11-13T17:09:05.585Z,39.80
2022-11-13T17:14:26.953Z,38.58
2022-11-13T17:19:48.630Z,38.97
2022-11-13T17:25:11.849Z,40.38
2022-11-13T17:30:34.050Z,37.70
2022-11-13T17:35:56.221Z,36.75
2022-11-13T17:41:20.863Z,36.80
2022-11-13T17:46:42.433Z,38.92
2022-11-13T17:52:04.013Z,38.67
2022-11-13T17:57:27.336Z,36.58
2022-11-13T18:02:49.049Z,37.10
2022-11-13T18:08:12.430Z,37.30
2022-11-13T18:13:43.547Z,37.90
2022-11-13T18:19:06.966Z,37.95
2022-11-13T18:24:28.804Z,37.65
2022-11-13T18:29:52.837Z,37.17
2022-11-13T18:35:17.834Z,37.58
2022-11-13T18:40:41.685Z,36.47
2022-11-13T18:46:06.533Z,37.17
2022-11-13T18:51:29.552Z,36.05
2022-11-13T18:56:51.136Z,35.75
2022-11-13T19:02:14.291Z,36.38
2022-11-13T19:07:44.877Z,38.17
2022-11-13T19:13:06.634Z,36.47
2022-11-13T19:18:41.156Z,35.38
2022-11-13T19:24:03.443Z,36.83
2022-11-13T19:29:25.019Z,36.88
2022-11-13T19:34:50.686Z,36.63
2022-11-13T19:40:13.974Z,36.58
2022-11-13T19:45:36.989Z,36.65
2022-11-13T19:51:04.667Z,35.95
2022-11-13T19:56:28.335Z,36.38
2022-11-13T20:01:49.874Z,35.88
2022-11-13T20:07:12.812Z,36.80
2022-11-13T20:12:34.397Z,36.42
2022-11-13T20:17:56.257Z,36.10
2022-11-13T20:23:18.898Z,36.70
2022-11-13T20:28:47.492Z,35.67
2022-11-13T20:34:10.226Z,36.03
2022-11-13T20:39:33.499Z,34.80
2022-11-13T20:44:58.508Z,35.53
2022-11-13T20:50:22.363Z,35.20
2022-11-13T20:55:45.051Z,36.08
2022-11-13T21:01:08.692Z,35.08
2022-11-13T21:06:30.262Z,35.72
2022-11-13T21:11:53.295Z,35.45
2022-11-13T21:17:14.880Z,36.05
2022-11-13T21:22:37.587Z,36.40
2022-11-13T21:28:00.699Z,36.58
2022-11-13T21:33:22.075Z,35.28
2022-11-13T21:38:44.262Z,36.03
2022-11-13T21:44:15.172Z,35.83
2022-11-13T21:49:36.866Z,35.53
2022-11-13T21:55:05.962Z,35.88
2022-11-13T22:00:28.704Z,36.85
2022-11-13T22:05:50.025Z,34.75
2022-11-13T22:11:12.157Z,36.03
2022-11-13T22:16:38.901Z,35.25
2022-11-13T22:22:00.566Z,35.47
2022-11-13T22:27:22.188Z,36.13
2022-11-13T22:32:45.068Z,35.72
2022-11-13T22:38:06.631Z,36.03
2022-11-13T22:43:28.165Z,35.53
2022-11-13T22:49:08.241Z,36.10
2022-11-13T22:54:29.626Z,35.15
2022-11-13T22:59:51.204Z,35.17
2022-11-13T23:05:14.190Z,35.55
2022-11-13T23:10:35.581Z,36.28
2022-11-13T23:15:57.102Z,35.70
2022-11-13T23:21:20.409Z,34.88
2022-11-13T23:26:41.833Z,35.75
2022-11-13T23:32:03.377Z,35.80
2022-11-13T23:37:26.325Z,36.72
2022-11-13T23:42:55.221Z,36.42
2022-11-13T23:48:17.321Z,36.28
2022-11-13T23:53:40.278Z,35.78
2022-11-13T23:59:01.877Z,35.63
